sensor_id;sensor_type;location;lat;lon;timestamp;pressure;altitude;pressure_sealevel;temperature;humidity
47080;BME280;33067;49.296;14.470;2022-11-20T00:01:12;96511.47;;;3.39;42.82
47080;BME280;33067;49.296;14.470;2022-11-20T00:03:37;96512.36;;;3.25;43.37
47080;BME280;33067;49.296;14.470;2022-11-20T00:06:02;96516.05;;;3.29;43.06
47080;BME280;33067;49.296;14.470;2022-11-20T00:08:28;96511.15;;;3.60;42.79
47080;BME280;33067;49.296;14.470;2022-11-20T00:10:53;96501.73;;;3.33;42.95
47080;BME280;33067;49.296;14.470;2022-11-20T00:13:19;96492.80;;;2.89;42.56
47080;BME280;33067;49.296;14.470;2022-11-20T00:15:45;96493.04;;;2.96;42.32
47080;BME280;33067;49.296;14.470;2022-11-20T00:18:10;96509.97;;;2.66;43.36
47080;BME280;33067;49.296;14.470;2022-11-20T00:20:36;96494.10;;;3.15;43.29
47080;BME280;33067;49.296;14.470;2022-11-20T00:23:01;96482.81;;;3.51;42.10
47080;BME280;33067;49.296;14.470;2022-11-20T00:25:26;96481.09;;;3.28;43.13
47080;BME280;33067;49.296;14.470;2022-11-20T00:27:52;96480.99;;;2.96;42.67
47080;BME280;33067;49.296;14.470;2022-11-20T00:30:17;96486.74;;;2.71;42.96
47080;BME280;33067;49.296;14.470;2022-11-20T00:32:42;96490.41;;;2.77;43.60
47080;BME280;33067;49.296;14.470;2022-11-20T00:35:08;96493.53;;;2.69;43.68
47080;BME280;33067;49.296;14.470;2022-11-20T00:37:33;96488.86;;;2.75;43.28
47080;BME280;33067;49.296;14.470;2022-11-20T00:39:58;96487.14;;;3.06;43.07
47080;BME280;33067;49.296;14.470;2022-11-20T00:42:24;96489.68;;;2.73;42.77
47080;BME280;33067;49.296;14.470;2022-11-20T00:44:49;96491.27;;;3.11;43.30
47080;BME280;33067;49.296;14.470;2022-11-20T00:47:15;96491.47;;;3.01;41.97
47080;BME280;33067;49.296;14.470;2022-11-20T00:49:41;96493.51;;;2.92;42.82
47080;BME280;33067;49.296;14.470;2022-11-20T00:52:06;96494.28;;;3.02;42.80
47080;BME280;33067;49.296;14.470;2022-11-20T00:54:32;96493.98;;;3.46;42.57
47080;BME280;33067;49.296;14.470;2022-11-20T00:56:57;96496.34;;;3.20;42.39
47080;BME280;33067;49.296;14.470;2022-11-20T00:59:22;96490.02;;;3.30;42.28
47080;BME280;33067;49.296;14.470;2022-11-20T01:01:47;96484.69;;;3.19;42.72
47080;BME280;33067;49.296;14.470;2022-11-20T01:04:13;96487.93;;;3.01;42.80
47080;BME280;33067;49.296;14.470;2022-11-20T01:06:39;96484.58;;;3.39;42.84
47080;BME280;33067;49.296;14.470;2022-11-20T01:09:05;96488.17;;;3.38;42.59
47080;BME280;33067;49.296;14.470;2022-11-20T01:11:31;96487.54;;;3.72;42.60
47080;BME280;33067;49.296;14.470;2022-11-20T01:13:55;96486.70;;;3.50;42.46
47080;BME280;33067;49.296;14.470;2022-11-20T01:16:22;96486.50;;;3.73;42.43
47080;BME280;33067;49.296;14.470;2022-11-20T01:18:46;96487.61;;;3.56;42.44
47080;BME280;33067;49.296;14.470;2022-11-20T01:21:12;96488.87;;;3.60;42.37
47080;BME280;33067;49.296;14.470;2022-11-20T01:23:38;96492.81;;;3.70;42.16
47080;BME280;33067;49.296;14.470;2022-11-20T01:26:03;96495.17;;;3.68;42.37
47080;BME280;33067;49.296;14.470;2022-11-20T01:28:26;96490.18;;;3.85;42.10
47080;BME280;33067;49.296;14.470;2022-11-20T01:30:51;96488.79;;;3.57;42.37
47080;BME280;33067;49.296;14.470;2022-11-20T01:33:17;96491.14;;;3.69;42.30
47080;BME280;33067;49.296;14.470;2022-11-20T01:35:42;96492.82;;;3.71;42.28
47080;BME280;33067;49.296;14.470;2022-11-20T01:38:08;96495.41;;;3.78;41.98
47080;BME280;33067;49.296;14.470;2022-11-20T01:40:33;96491.23;;;3.80;41.76
47080;BME280;33067;49.296;14.470;2022-11-20T01:43:09;96490.74;;;3.78;41.74
47080;BME280;33067;49.296;14.470;2022-11-20T01:45:48;96489.68;;;3.87;41.67
47080;BME280;33067;49.296;14.470;2022-11-20T01:47:49;96491.33;;;3.88;41.70
47080;BME280;33067;49.296;14.470;2022-11-20T01:50:19;96493.16;;;4.13;41.87
47080;BME280;33067;49.296;14.470;2022-11-20T01:52:42;96488.36;;;3.99;41.53
47080;BME280;33067;49.296;14.470;2022-11-20T01:55:07;96484.52;;;3.92;41.48
47080;BME280;33067;49.296;14.470;2022-11-20T01:57:31;96475.08;;;3.89;41.40
47080;BME280;33067;49.296;14.470;2022-11-20T02:00:00;96472.91;;;3.64;41.83
47080;BME280;33067;49.296;14.470;2022-11-20T02:02:21;96476.79;;;3.56;42.31
47080;BME280;33067;49.296;14.470;2022-11-20T02:04:47;96484.13;;;3.67;42.36
47080;BME280;33067;49.296;14.470;2022-11-20T02:07:12;96484.58;;;3.67;42.39
47080;BME280;33067;49.296;14.470;2022-11-20T02:09:37;96482.10;;;3.52;42.25
47080;BME280;33067;49.296;14.470;2022-11-20T02:12:03;96484.67;;;3.64;42.03
47080;BME280;33067;49.296;14.470;2022-11-20T02:14:27;96486.55;;;3.61;42.03
47080;BME280;33067;49.296;14.470;2022-11-20T02:16:55;96490.32;;;3.58;42.23
47080;BME280;33067;49.296;14.470;2022-11-20T02:19:23;96490.64;;;3.79;41.76
47080;BME280;33067;49.296;14.470;2022-11-20T02:21:49;96491.46;;;3.94;41.61
47080;BME280;33067;49.296;14.470;2022-11-20T02:24:12;96488.93;;;3.72;41.84
47080;BME280;33067;49.296;14.470;2022-11-20T02:26:41;96483.53;;;3.80;41.78
47080;BME280;33067;49.296;14.470;2022-11-20T02:29:01;96483.84;;;3.85;41.82
47080;BME280;33067;49.296;14.470;2022-11-20T02:31:25;96484.41;;;3.90;41.91
47080;BME280;33067;49.296;14.470;2022-11-20T02:33:55;96476.12;;;3.72;41.90
47080;BME280;33067;49.296;14.470;2022-11-20T02:36:16;96474.19;;;3.49;41.94
47080;BME280;33067;49.296;14.470;2022-11-20T02:38:41;96477.71;;;3.32;42.43
47080;BME280;33067;49.296;14.470;2022-11-20T02:41:06;96478.16;;;2.88;43.01
47080;BME280;33067;49.296;14.470;2022-11-20T02:43:31;96469.74;;;3.43;42.96
47080;BME280;33067;49.296;14.470;2022-11-20T02:45:56;96470.02;;;3.38;42.92
47080;BME280;33067;49.296;14.470;2022-11-20T02:48:22;96471.14;;;3.61;42.81
47080;BME280;33067;49.296;14.470;2022-11-20T02:50:48;96470.88;;;3.54;42.71
47080;BME280;33067;49.296;14.470;2022-11-20T02:53:13;96471.92;;;3.35;42.49
47080;BME280;33067;49.296;14.470;2022-11-20T02:55:39;96475.32;;;3.72;42.43
47080;BME280;33067;49.296;14.470;2022-11-20T02:58:04;96470.90;;;3.70;42.27
47080;BME280;33067;49.296;14.470;2022-11-20T03:00:30;96472.30;;;3.35;42.31
47080;BME280;33067;49.296;14.470;2022-11-20T03:02:55;96463.44;;;3.52;42.37
47080;BME280;33067;49.296;14.470;2022-11-20T03:05:21;96462.85;;;3.80;42.00
47080;BME280;33067;49.296;14.470;2022-11-20T03:07:46;96469.33;;;3.63;42.17
47080;BME280;33067;49.296;14.470;2022-11-20T03:13:01;96475.53;;;3.85;41.73
47080;BME280;33067;49.296;14.470;2022-11-20T03:15:26;96473.59;;;3.85;41.44
47080;BME280;33067;49.296;14.470;2022-11-20T03:17:53;96476.41;;;3.56;41.71
47080;BME280;33067;49.296;14.470;2022-11-20T03:20:18;96482.84;;;3.62;41.87
47080;BME280;33067;49.296;14.470;2022-11-20T03:22:44;96479.48;;;3.71;41.88
47080;BME280;33067;49.296;14.470;2022-11-20T03:25:09;96477.16;;;3.97;42.26
47080;BME280;33067;49.296;14.470;2022-11-20T03:27:35;96467.20;;;3.80;41.88
47080;BME280;33067;49.296;14.470;2022-11-20T03:29:59;96466.97;;;3.62;42.35
47080;BME280;33067;49.296;14.470;2022-11-20T03:32:24;96466.56;;;3.41;42.36
47080;BME280;33067;49.296;14.470;2022-11-20T03:34:50;96466.86;;;3.06;42.20
47080;BME280;33067;49.296;14.470;2022-11-20T03:37:16;96470.19;;;3.45;42.77
47080;BME280;33067;49.296;14.470;2022-11-20T03:39:41;96474.57;;;3.47;43.10
47080;BME280;33067;49.296;14.470;2022-11-20T03:42:07;96481.87;;;3.56;42.93
47080;BME280;33067;49.296;14.470;2022-11-20T03:44:32;96485.41;;;3.69;42.92
47080;BME280;33067;49.296;14.470;2022-11-20T03:46:58;96489.48;;;3.54;42.63
47080;BME280;33067;49.296;14.470;2022-11-20T03:49:23;96490.14;;;3.50;42.76
47080;BME280;33067;49.296;14.470;2022-11-20T03:51:48;96495.27;;;3.67;42.59
47080;BME280;33067;49.296;14.470;2022-11-20T03:54:13;96496.89;;;3.68;42.67
47080;BME280;33067;49.296;14.470;2022-11-20T03:56:39;96489.63;;;3.94;42.32
47080;BME280;33067;49.296;14.470;2022-11-20T03:59:06;96484.53;;;3.90;42.59
47080;BME280;33067;49.296;14.470;2022-11-20T04:01:32;96486.74;;;4.01;42.37
47080;BME280;33067;49.296;14.470;2022-11-20T04:03:57;96487.44;;;4.01;42.37
47080;BME280;33067;49.296;14.470;2022-11-20T04:06:23;96483.60;;;4.00;42.42
47080;BME280;33067;49.296;14.470;2022-11-20T04:08:47;96468.38;;;4.25;41.44
47080;BME280;33067;49.296;14.470;2022-11-20T04:11:14;96457.27;;;3.97;41.90
47080;BME280;33067;49.296;14.470;2022-11-20T04:13:38;96466.40;;;3.55;42.85
47080;BME280;33067;49.296;14.470;2022-11-20T04:16:05;96461.49;;;4.18;41.96
47080;BME280;33067;49.296;14.470;2022-11-20T04:18:29;96474.46;;;3.62;42.66
47080;BME280;33067;49.296;14.470;2022-11-20T04:20:56;96483.20;;;3.54;42.89
47080;BME280;33067;49.296;14.470;2022-11-20T04:23:19;96487.11;;;3.79;42.65
47080;BME280;33067;49.296;14.470;2022-11-20T04:25:45;96483.54;;;3.84;42.66
47080;BME280;33067;49.296;14.470;2022-11-20T04:28:10;96482.53;;;4.02;42.47
47080;BME280;33067;49.296;14.470;2022-11-20T04:30:36;96481.46;;;3.76;42.41
47080;BME280;33067;49.296;14.470;2022-11-20T04:33:01;96478.34;;;4.11;42.13
47080;BME280;33067;49.296;14.470;2022-11-20T04:35:27;96476.22;;;4.15;41.90
47080;BME280;33067;49.296;14.470;2022-11-20T04:37:52;96474.64;;;4.12;42.09
47080;BME280;33067;49.296;14.470;2022-11-20T04:40:18;96464.31;;;4.21;42.21
47080;BME280;33067;49.296;14.470;2022-11-20T04:42:43;96456.58;;;3.95;42.05
47080;BME280;33067;49.296;14.470;2022-11-20T04:45:09;96457.83;;;4.06;42.02
47080;BME280;33067;49.296;14.470;2022-11-20T04:47:34;96457.72;;;3.98;41.83
47080;BME280;33067;49.296;14.470;2022-11-20T04:49:59;96456.99;;;3.75;42.15
47080;BME280;33067;49.296;14.470;2022-11-20T04:52:24;96458.60;;;3.79;42.20
47080;BME280;33067;49.296;14.470;2022-11-20T04:54:50;96452.92;;;3.90;42.23
47080;BME280;33067;49.296;14.470;2022-11-20T04:57:15;96443.40;;;4.02;42.34
47080;BME280;33067;49.296;14.470;2022-11-20T04:59:40;96446.87;;;3.95;42.16
47080;BME280;33067;49.296;14.470;2022-11-20T05:02:05;96444.68;;;3.92;42.37
47080;BME280;33067;49.296;14.470;2022-11-20T05:04:30;96449.11;;;4.05;42.27
47080;BME280;33067;49.296;14.470;2022-11-20T05:06:56;96450.32;;;4.12;42.30
47080;BME280;33067;49.296;14.470;2022-11-20T05:09:21;96447.54;;;4.23;42.42
47080;BME280;33067;49.296;14.470;2022-11-20T05:11:47;96446.99;;;4.17;42.36
47080;BME280;33067;49.296;14.470;2022-11-20T05:14:13;96452.52;;;4.26;42.30
47080;BME280;33067;49.296;14.470;2022-11-20T05:16:38;96454.87;;;3.93;43.10
47080;BME280;33067;49.296;14.470;2022-11-20T05:19:04;96448.95;;;4.07;42.77
47080;BME280;33067;49.296;14.470;2022-11-20T05:21:30;96446.87;;;4.18;43.14
47080;BME280;33067;49.296;14.470;2022-11-20T05:23:56;96433.33;;;4.05;43.00
47080;BME280;33067;49.296;14.470;2022-11-20T05:26:22;96427.59;;;3.58;43.02
47080;BME280;33067;49.296;14.470;2022-11-20T05:28:48;96418.50;;;3.97;42.97
47080;BME280;33067;49.296;14.470;2022-11-20T05:31:15;96418.35;;;3.59;43.48
47080;BME280;33067;49.296;14.470;2022-11-20T05:33:41;96426.07;;;3.58;43.30
47080;BME280;33067;49.296;14.470;2022-11-20T05:36:04;96420.32;;;3.74;43.17
47080;BME280;33067;49.296;14.470;2022-11-20T05:38:29;96426.23;;;3.64;43.14
47080;BME280;33067;49.296;14.470;2022-11-20T05:40:55;96418.54;;;3.83;42.73
47080;BME280;33067;49.296;14.470;2022-11-20T05:43:20;96419.67;;;3.97;42.81
47080;BME280;33067;49.296;14.470;2022-11-20T05:45:52;96428.02;;;3.45;43.51
47080;BME280;33067;49.296;14.470;2022-11-20T05:48:11;96430.79;;;3.55;43.32
47080;BME280;33067;49.296;14.470;2022-11-20T05:50:37;96438.18;;;3.65;43.29
47080;BME280;33067;49.296;14.470;2022-11-20T05:53:02;96445.44;;;3.75;42.87
47080;BME280;33067;49.296;14.470;2022-11-20T05:55:28;96441.83;;;3.87;42.78
47080;BME280;33067;49.296;14.470;2022-11-20T05:57:53;96447.19;;;3.70;43.16
47080;BME280;33067;49.296;14.470;2022-11-20T06:00:18;96451.34;;;3.94;42.58
47080;BME280;33067;49.296;14.470;2022-11-20T06:02:43;96460.48;;;3.74;42.62
47080;BME280;33067;49.296;14.470;2022-11-20T06:05:09;96468.33;;;4.03;42.77
47080;BME280;33067;49.296;14.470;2022-11-20T06:07:34;96472.66;;;3.81;42.67
47080;BME280;33067;49.296;14.470;2022-11-20T06:10:00;96474.40;;;4.24;42.45
47080;BME280;33067;49.296;14.470;2022-11-20T06:12:25;96478.23;;;4.21;42.58
47080;BME280;33067;49.296;14.470;2022-11-20T06:14:50;96479.38;;;4.21;42.84
47080;BME280;33067;49.296;14.470;2022-11-20T06:17:15;96476.59;;;3.95;42.62
47080;BME280;33067;49.296;14.470;2022-11-20T06:19:40;96467.39;;;4.27;42.16
47080;BME280;33067;49.296;14.470;2022-11-20T06:22:06;96463.68;;;4.27;42.53
47080;BME280;33067;49.296;14.470;2022-11-20T06:24:31;96460.17;;;4.34;42.45
47080;BME280;33067;49.296;14.470;2022-11-20T06:26:56;96459.26;;;4.24;42.64
47080;BME280;33067;49.296;14.470;2022-11-20T06:29:22;96461.50;;;4.23;42.70
47080;BME280;33067;49.296;14.470;2022-11-20T06:31:47;96457.52;;;4.31;41.87
47080;BME280;33067;49.296;14.470;2022-11-20T06:34:13;96467.61;;;3.99;42.93
47080;BME280;33067;49.296;14.470;2022-11-20T06:36:39;96470.65;;;3.63;43.52
47080;BME280;33067;49.296;14.470;2022-11-20T06:39:04;96469.41;;;3.92;43.24
47080;BME280;33067;49.296;14.470;2022-11-20T06:41:29;96470.51;;;3.57;43.59
47080;BME280;33067;49.296;14.470;2022-11-20T06:43:55;96466.95;;;3.50;43.65
47080;BME280;33067;49.296;14.470;2022-11-20T06:46:21;96462.30;;;3.49;43.69
47080;BME280;33067;49.296;14.470;2022-11-20T06:48:46;96464.44;;;3.70;43.63
47080;BME280;33067;49.296;14.470;2022-11-20T06:51:13;96458.48;;;3.80;43.83
47080;BME280;33067;49.296;14.470;2022-11-20T06:53:37;96450.53;;;4.32;42.99
47080;BME280;33067;49.296;14.470;2022-11-20T06:56:01;96452.20;;;4.00;42.90
47080;BME280;33067;49.296;14.470;2022-11-20T06:58:28;96441.05;;;3.90;42.73
47080;BME280;33067;49.296;14.470;2022-11-20T07:00:52;96434.43;;;3.54;43.28
47080;BME280;33067;49.296;14.470;2022-11-20T07:03:18;96450.85;;;3.66;43.86
47080;BME280;33067;49.296;14.470;2022-11-20T07:05:43;96451.10;;;3.51;43.47
47080;BME280;33067;49.296;14.470;2022-11-20T07:08:09;96447.31;;;3.64;43.76
47080;BME280;33067;49.296;14.470;2022-11-20T07:10:34;96456.69;;;3.91;43.60
47080;BME280;33067;49.296;14.470;2022-11-20T07:13:00;96469.23;;;4.11;43.40
47080;BME280;33067;49.296;14.470;2022-11-20T07:15:25;96459.25;;;4.33;42.98
47080;BME280;33067;49.296;14.470;2022-11-20T07:17:50;96468.70;;;4.14;42.98
47080;BME280;33067;49.296;14.470;2022-11-20T07:20:15;96472.72;;;4.16;42.74
47080;BME280;33067;49.296;14.470;2022-11-20T07:22:41;96477.29;;;4.46;42.75
47080;BME280;33067;49.296;14.470;2022-11-20T07:25:07;96483.87;;;4.01;42.67
47080;BME280;33067;49.296;14.470;2022-11-20T07:27:32;96478.80;;;4.38;42.92
47080;BME280;33067;49.296;14.470;2022-11-20T07:29:57;96473.10;;;4.39;42.67
47080;BME280;33067;49.296;14.470;2022-11-20T07:32:23;96478.43;;;4.25;42.84
47080;BME280;33067;49.296;14.470;2022-11-20T07:34:48;96484.16;;;4.23;43.28
47080;BME280;33067;49.296;14.470;2022-11-20T07:37:14;96483.87;;;4.13;43.44
47080;BME280;33067;49.296;14.470;2022-11-20T07:39:38;96481.48;;;4.00;43.08
47080;BME280;33067;49.296;14.470;2022-11-20T07:42:04;96482.24;;;4.15;43.51
47080;BME280;33067;49.296;14.470;2022-11-20T07:44:29;96485.57;;;4.12;43.68
47080;BME280;33067;49.296;14.470;2022-11-20T07:46:55;96482.97;;;4.18;43.39
47080;BME280;33067;49.296;14.470;2022-11-20T07:49:21;96480.30;;;4.09;43.33
47080;BME280;33067;49.296;14.470;2022-11-20T07:51:47;96476.26;;;3.89;43.69
47080;BME280;33067;49.296;14.470;2022-11-20T07:54:12;96475.57;;;4.03;43.90
47080;BME280;33067;49.296;14.470;2022-11-20T07:56:38;96472.31;;;3.76;43.84
47080;BME280;33067;49.296;14.470;2022-11-20T07:59:03;96466.92;;;4.01;42.99
47080;BME280;33067;49.296;14.470;2022-11-20T08:01:29;96461.76;;;3.42;44.49
47080;BME280;33067;49.296;14.470;2022-11-20T08:03:54;96455.99;;;3.47;44.81
47080;BME280;33067;49.296;14.470;2022-11-20T08:06:19;96456.09;;;3.55;44.91
47080;BME280;33067;49.296;14.470;2022-11-20T08:08:44;96460.12;;;3.70;44.75
47080;BME280;33067;49.296;14.470;2022-11-20T08:11:10;96461.16;;;3.91;44.48
47080;BME280;33067;49.296;14.470;2022-11-20T08:13:35;96457.72;;;3.71;44.43
47080;BME280;33067;49.296;14.470;2022-11-20T08:16:00;96452.47;;;4.17;44.21
47080;BME280;33067;49.296;14.470;2022-11-20T08:18:26;96454.18;;;4.25;44.04
47080;BME280;33067;49.296;14.470;2022-11-20T08:20:51;96452.08;;;4.15;43.89
47080;BME280;33067;49.296;14.470;2022-11-20T08:23:16;96451.13;;;4.23;43.70
47080;BME280;33067;49.296;14.470;2022-11-20T08:25:41;96450.29;;;4.45;42.62
47080;BME280;33067;49.296;14.470;2022-11-20T08:28:08;96451.61;;;4.09;43.71
47080;BME280;33067;49.296;14.470;2022-11-20T08:30:32;96455.27;;;4.08;44.22
47080;BME280;33067;49.296;14.470;2022-11-20T08:33:01;96453.81;;;4.15;43.99
47080;BME280;33067;49.296;14.470;2022-11-20T08:35:23;96453.67;;;4.04;43.95
47080;BME280;33067;49.296;14.470;2022-11-20T08:37:48;96458.67;;;4.07;44.28
47080;BME280;33067;49.296;14.470;2022-11-20T08:40:15;96456.86;;;3.76;44.13
47080;BME280;33067;49.296;14.470;2022-11-20T08:42:47;96454.94;;;4.22;43.54
47080;BME280;33067;49.296;14.470;2022-11-20T08:45:04;96455.32;;;3.75;44.17
47080;BME280;33067;49.296;14.470;2022-11-20T08:47:29;96457.76;;;4.00;44.36
47080;BME280;33067;49.296;14.470;2022-11-20T08:49:54;96455.93;;;4.10;44.93
47080;BME280;33067;49.296;14.470;2022-11-20T08:52:20;96456.16;;;3.84;45.25
47080;BME280;33067;49.296;14.470;2022-11-20T08:54:45;96454.67;;;3.84;45.30
47080;BME280;33067;49.296;14.470;2022-11-20T08:57:11;96450.29;;;3.99;45.05
47080;BME280;33067;49.296;14.470;2022-11-20T08:59:36;96447.09;;;4.14;44.56
47080;BME280;33067;49.296;14.470;2022-11-20T09:02:01;96450.06;;;4.01;44.72
47080;BME280;33067;49.296;14.470;2022-11-20T09:04:27;96446.88;;;4.26;44.39
47080;BME280;33067;49.296;14.470;2022-11-20T09:06:52;96444.60;;;4.19;44.64
47080;BME280;33067;49.296;14.470;2022-11-20T09:09:17;96438.76;;;4.31;44.00
47080;BME280;33067;49.296;14.470;2022-11-20T09:11:42;96437.45;;;4.44;44.53
47080;BME280;33067;49.296;14.470;2022-11-20T09:14:07;96434.69;;;4.27;44.42
47080;BME280;33067;49.296;14.470;2022-11-20T09:16:33;96436.91;;;4.44;44.03
47080;BME280;33067;49.296;14.470;2022-11-20T09:18:57;96444.63;;;4.26;44.57
47080;BME280;33067;49.296;14.470;2022-11-20T09:21:23;96434.41;;;4.64;43.49
47080;BME280;33067;49.296;14.470;2022-11-20T09:23:48;96442.80;;;3.87;44.82
47080;BME280;33067;49.296;14.470;2022-11-20T09:26:14;96433.57;;;4.34;44.57
47080;BME280;33067;49.296;14.470;2022-11-20T09:28:39;96429.64;;;4.09;44.32
47080;BME280;33067;49.296;14.470;2022-11-20T09:31:05;96427.07;;;4.69;44.19
47080;BME280;33067;49.296;14.470;2022-11-20T09:33:30;96423.35;;;4.38;44.38
47080;BME280;33067;49.296;14.470;2022-11-20T09:35:56;96423.45;;;4.32;44.44
47080;BME280;33067;49.296;14.470;2022-11-20T09:38:21;96415.66;;;4.63;44.10
47080;BME280;33067;49.296;14.470;2022-11-20T09:40:53;96412.78;;;4.52;43.10
47080;BME280;33067;49.296;14.470;2022-11-20T09:43:15;96415.90;;;4.20;44.86
47080;BME280;33067;49.296;14.470;2022-11-20T09:45:49;96417.26;;;4.35;44.25
47080;BME280;33067;49.296;14.470;2022-11-20T09:48:16;96417.07;;;4.54;43.90
47080;BME280;33067;49.296;14.470;2022-11-20T09:50:31;96411.59;;;4.88;42.21
47080;BME280;33067;49.296;14.470;2022-11-20T09:53:07;96407.96;;;4.34;43.64
47080;BME280;33067;49.296;14.470;2022-11-20T09:55:19;96406.20;;;4.49;43.77
47080;BME280;33067;49.296;14.470;2022-11-20T09:57:48;96404.49;;;4.32;43.56
47080;BME280;33067;49.296;14.470;2022-11-20T10:00:13;96401.24;;;4.87;43.67
47080;BME280;33067;49.296;14.470;2022-11-20T10:02:39;96402.03;;;4.78;43.48
47080;BME280;33067;49.296;14.470;2022-11-20T10:05:06;96401.15;;;4.72;42.92
47080;BME280;33067;49.296;14.470;2022-11-20T10:07:32;96402.49;;;4.86;42.74
47080;BME280;33067;49.296;14.470;2022-11-20T10:09:54;96402.97;;;4.75;42.78
47080;BME280;33067;49.296;14.470;2022-11-20T10:12:23;96398.26;;;5.06;42.97
47080;BME280;33067;49.296;14.470;2022-11-20T10:14:54;96394.94;;;4.59;43.27
47080;BME280;33067;49.296;14.470;2022-11-20T10:17:16;96394.64;;;4.74;42.90
47080;BME280;33067;49.296;14.470;2022-11-20T10:19:47;96398.67;;;4.64;42.89
47080;BME280;33067;49.296;14.470;2022-11-20T10:22:06;96404.03;;;4.75;43.21
47080;BME280;33067;49.296;14.470;2022-11-20T10:24:42;96401.45;;;4.94;43.11
47080;BME280;33067;49.296;14.470;2022-11-20T10:26:58;96397.45;;;5.02;43.48
47080;BME280;33067;49.296;14.470;2022-11-20T10:29:18;96396.03;;;5.26;42.62
47080;BME280;33067;49.296;14.470;2022-11-20T10:31:43;96392.37;;;4.98;42.62
47080;BME280;33067;49.296;14.470;2022-11-20T10:34:16;96389.16;;;5.23;42.74
47080;BME280;33067;49.296;14.470;2022-11-20T10:36:36;96385.65;;;4.81;43.05
47080;BME280;33067;49.296;14.470;2022-11-20T10:39:03;96388.13;;;5.23;43.31
47080;BME280;33067;49.296;14.470;2022-11-20T10:41:27;96389.72;;;5.22;43.32
47080;BME280;33067;49.296;14.470;2022-11-20T10:43:54;96379.56;;;5.17;43.17
47080;BME280;33067;49.296;14.470;2022-11-20T10:46:18;96375.12;;;5.41;41.95
47080;BME280;33067;49.296;14.470;2022-11-20T10:48:43;96370.32;;;4.93;43.25
47080;BME280;33067;49.296;14.470;2022-11-20T10:51:13;96379.57;;;5.05;43.49
47080;BME280;33067;49.296;14.470;2022-11-20T10:53:44;96384.82;;;4.93;43.03
47080;BME280;33067;49.296;14.470;2022-11-20T10:56:03;96383.72;;;5.34;43.25
47080;BME280;33067;49.296;14.470;2022-11-20T10:58:29;96384.01;;;5.06;43.29
47080;BME280;33067;49.296;14.470;2022-11-20T11:00:47;96380.54;;;5.25;43.61
47080;BME280;33067;49.296;14.470;2022-11-20T11:03:22;96372.67;;;5.26;43.47
47080;BME280;33067;49.296;14.470;2022-11-20T11:05:40;96373.00;;;5.35;42.75
47080;BME280;33067;49.296;14.470;2022-11-20T11:08:09;96367.94;;;5.03;42.75
47080;BME280;33067;49.296;14.470;2022-11-20T11:10:36;96363.12;;;5.11;42.97
47080;BME280;33067;49.296;14.470;2022-11-20T11:12:54;96366.64;;;5.38;43.13
47080;BME280;33067;49.296;14.470;2022-11-20T11:15:25;96368.93;;;5.53;42.87
47080;BME280;33067;49.296;14.470;2022-11-20T11:17:47;96373.13;;;5.16;43.14
47080;BME280;33067;49.296;14.470;2022-11-20T11:20:15;96359.45;;;5.27;43.21
47080;BME280;33067;49.296;14.470;2022-11-20T11:22:43;96369.38;;;5.42;42.87
47080;BME280;33067;49.296;14.470;2022-11-20T11:25:00;96371.97;;;5.32;42.63
47080;BME280;33067;49.296;14.470;2022-11-20T11:27:26;96374.35;;;5.50;42.76
47080;BME280;33067;49.296;14.470;2022-11-20T11:30:03;96373.49;;;5.77;42.44
47080;BME280;33067;49.296;14.470;2022-11-20T11:32:19;96380.52;;;5.15;42.63
47080;BME280;33067;49.296;14.470;2022-11-20T11:34:42;96380.31;;;5.84;42.52
47080;BME280;33067;49.296;14.470;2022-11-20T11:37:16;96378.06;;;5.56;42.70
47080;BME280;33067;49.296;14.470;2022-11-20T11:39:33;96378.96;;;5.33;43.08
47080;BME280;33067;49.296;14.470;2022-11-20T11:42:01;96382.22;;;5.36;43.19
47080;BME280;33067;49.296;14.470;2022-11-20T11:44:30;96380.69;;;5.50;42.77
47080;BME280;33067;49.296;14.470;2022-11-20T11:46:53;96381.01;;;5.89;42.42
47080;BME280;33067;49.296;14.470;2022-11-20T11:49:17;96377.83;;;5.71;42.58
47080;BME280;33067;49.296;14.470;2022-11-20T11:51:50;96376.48;;;5.76;42.61
47080;BME280;33067;49.296;14.470;2022-11-20T11:54:15;96374.29;;;6.07;42.62
47080;BME280;33067;49.296;14.470;2022-11-20T11:56:33;96368.64;;;5.90;42.50
47080;BME280;33067;49.296;14.470;2022-11-20T11:59:01;96359.09;;;6.17;42.75
47080;BME280;33067;49.296;14.470;2022-11-20T12:01:30;96356.82;;;6.02;42.48
47080;BME280;33067;49.296;14.470;2022-11-20T12:03:58;96354.36;;;5.83;42.52
47080;BME280;33067;49.296;14.470;2022-11-20T12:06:15;96352.18;;;6.12;42.50
47080;BME280;33067;49.296;14.470;2022-11-20T12:08:45;96348.97;;;5.87;42.52
47080;BME280;33067;49.296;14.470;2022-11-20T12:11:06;96346.75;;;5.87;42.38
47080;BME280;33067;49.296;14.470;2022-11-20T12:13:40;96340.52;;;6.11;42.10
47080;BME280;33067;49.296;14.470;2022-11-20T12:15:54;96339.84;;;5.91;41.99
47080;BME280;33067;49.296;14.470;2022-11-20T12:18:21;96330.46;;;5.93;41.97
47080;BME280;33067;49.296;14.470;2022-11-20T12:20:51;96326.51;;;6.23;41.72
47080;BME280;33067;49.296;14.470;2022-11-20T12:23:17;96333.55;;;6.10;42.23
47080;BME280;33067;49.296;14.470;2022-11-20T12:25:37;96327.82;;;5.89;42.39
47080;BME280;33067;49.296;14.470;2022-11-20T12:28:15;96331.45;;;6.13;42.01
47080;BME280;33067;49.296;14.470;2022-11-20T12:30:27;96329.78;;;6.08;42.23
47080;BME280;33067;49.296;14.470;2022-11-20T12:33:07;96326.12;;;5.73;42.20
47080;BME280;33067;49.296;14.470;2022-11-20T12:35:32;96325.26;;;5.68;42.52
47080;BME280;33067;49.296;14.470;2022-11-20T12:37:49;96324.22;;;5.94;42.77
47080;BME280;33067;49.296;14.470;2022-11-20T12:40:21;96321.85;;;5.83;43.03
47080;BME280;33067;49.296;14.470;2022-11-20T12:42:44;96320.81;;;5.46;43.71
47080;BME280;33067;49.296;14.470;2022-11-20T12:45:09;96322.76;;;5.56;43.90
47080;BME280;33067;49.296;14.470;2022-11-20T12:47:30;96323.44;;;5.89;43.73
47080;BME280;33067;49.296;14.470;2022-11-20T12:49:55;96324.80;;;5.62;43.89
47080;BME280;33067;49.296;14.470;2022-11-20T12:52:24;96324.50;;;5.75;43.73